createdAt,value
2023-05-11T00:01:30.249Z,0.93
2023-05-11T00:03:57.521Z,1.20
2023-05-11T00:06:24.799Z,1.05
2023-05-11T00:08:51.928Z,1.38
2023-05-11T00:11:19.124Z,0.68
2023-05-11T00:13:46.447Z,1.38
2023-05-11T00:16:13.810Z,1.58
2023-05-11T00:18:41.276Z,0.90
2023-05-11T00:21:08.537Z,1.52
2023-05-11T00:23:35.960Z,1.23
2023-05-11T00:26:03.141Z,0.77
2023-05-11T00:28:30.560Z,1.25
2023-05-11T00:30:58.024Z,0.52
2023-05-11T00:33:26.111Z,1.30
2023-05-11T00:35:53.330Z,1.80
2023-05-11T00:38:20.604Z,0.80
2023-05-11T00:40:49.295Z,1.90
2023-05-11T00:43:16.714Z,1.38
2023-05-11T00:45:47.901Z,0.68
2023-05-11T00:48:15.854Z,1.20
2023-05-11T00:50:43.037Z,1.35
2023-05-11T00:53:11.436Z,1.23
2023-05-11T00:55:38.592Z,2.15
2023-05-11T00:58:06.163Z,1.00
2023-05-11T01:00:33.635Z,1.35
2023-05-11T01:03:02.153Z,1.70
2023-05-11T01:05:49.623Z,1.05
2023-05-11T01:08:19.059Z,1.63
2023-05-11T01:10:49.748Z,2.28
2023-05-11T01:13:29.132Z,1.65
2023-05-11T01:15:56.542Z,2.20
2023-05-11T01:18:39.541Z,2.63
2023-05-11T01:21:07.389Z,1.75
2023-05-11T01:23:54.093Z,2.63
2023-05-11T01:26:40.209Z,2.70
2023-05-11T01:29:13.484Z,2.10
2023-05-11T01:31:43.034Z,1.20
2023-05-11T01:34:18.132Z,3.90
2023-05-11T01:36:51.818Z,3.70
2023-05-11T01:39:21.443Z,1.35
2023-05-11T01:41:52.294Z,1.40
2023-05-11T01:44:20.131Z,1.52
2023-05-11T01:46:48.537Z,2.15
2023-05-11T01:49:16.910Z,2.33
2023-05-11T01:51:44.831Z,1.95
2023-05-11T01:54:12.233Z,1.63
2023-05-11T01:56:41.228Z,1.73
2023-05-11T01:59:09.708Z,1.02
2023-05-11T02:01:37.076Z,2.03
2023-05-11T02:04:05.763Z,2.00
2023-05-11T02:06:33.146Z,1.15
2023-05-11T02:09:01.715Z,1.75
2023-05-11T02:11:30.018Z,3.13
2023-05-11T02:13:58.847Z,1.65
2023-05-11T02:16:28.434Z,2.53
2023-05-11T02:18:56.479Z,0.90
2023-05-11T02:21:23.989Z,2.42
2023-05-11T02:23:51.853Z,1.73
2023-05-11T02:26:19.030Z,1.52
2023-05-11T02:28:46.218Z,3.08
2023-05-11T02:31:18.072Z,2.22
2023-05-11T02:33:46.645Z,1.83
2023-05-11T02:36:17.260Z,1.80
2023-05-11T02:38:47.368Z,2.95
2023-05-11T02:41:16.913Z,1.48
2023-05-11T02:43:49.097Z,1.48
2023-05-11T02:46:17.886Z,2.15
2023-05-11T02:48:48.366Z,2.38
2023-05-11T02:51:17.035Z,1.65
2023-05-11T02:53:45.769Z,0.95
2023-05-11T02:56:13.123Z,0.98
2023-05-11T02:58:40.344Z,1.92
2023-05-11T03:01:08.164Z,1.17
2023-05-11T03:03:36.470Z,2.10
2023-05-11T03:06:03.878Z,2.25
2023-05-11T03:08:31.042Z,1.10
2023-05-11T03:10:58.679Z,1.92
2023-05-11T03:13:26.817Z,0.77
2023-05-11T03:15:54.106Z,2.15
2023-05-11T03:18:21.864Z,2.25
2023-05-11T03:20:51.049Z,1.63
2023-05-11T03:23:20.263Z,1.75
2023-05-11T03:25:48.314Z,1.52
2023-05-11T03:28:15.702Z,0.98
2023-05-11T03:30:45.761Z,3.05
2023-05-11T03:33:13.091Z,2.13
2023-05-11T03:35:42.273Z,2.25
2023-05-11T03:38:10.931Z,1.55
2023-05-11T03:40:38.407Z,2.22
2023-05-11T03:43:05.964Z,2.47
2023-05-11T03:45:33.875Z,2.10
2023-05-11T03:48:01.362Z,0.55
2023-05-11T03:50:30.776Z,1.35
2023-05-11T03:52:58.429Z,2.20
2023-05-11T03:55:26.832Z,2.10
2023-05-11T03:57:54.040Z,3.20
2023-05-11T04:00:22.116Z,2.47
2023-05-11T04:02:49.535Z,3.05
2023-05-11T04:05:18.482Z,1.42
2023-05-11T04:07:46.422Z,2.88
2023-05-11T04:10:13.554Z,2.05
2023-05-11T04:12:40.700Z,2.03
2023-05-11T04:15:08.082Z,2.35
2023-05-11T04:17:35.306Z,2.42
2023-05-11T04:20:02.603Z,1.48
2023-05-11T04:22:29.929Z,1.40
2023-05-11T04:24:57.156Z,2.15
2023-05-11T04:27:24.275Z,1.27
2023-05-11T04:29:51.531Z,1.85
2023-05-11T04:32:18.643Z,1.08
2023-05-11T04:34:46.145Z,3.60
2023-05-11T04:37:13.297Z,3.42
2023-05-11T04:39:40.533Z,2.63
2023-05-11T04:42:07.660Z,1.38
2023-05-11T04:44:34.942Z,2.17
2023-05-11T04:47:02.160Z,1.67
2023-05-11T04:49:29.378Z,1.52
2023-05-11T04:51:56.610Z,2.10
2023-05-11T04:54:23.766Z,2.65
2023-05-11T04:56:51.128Z,1.95
2023-05-11T04:59:18.236Z,2.47
2023-05-11T05:01:45.346Z,1.90
2023-05-11T05:04:12.748Z,2.97
2023-05-11T05:06:39.962Z,1.27
2023-05-11T05:09:07.193Z,1.55
2023-05-11T05:11:34.360Z,1.17
2023-05-11T05:14:01.648Z,2.22
2023-05-11T05:16:30.187Z,2.10
2023-05-11T05:18:59.357Z,1.35
2023-05-11T05:21:26.642Z,2.20
2023-05-11T05:23:53.803Z,2.28
2023-05-11T05:26:21.792Z,2.45
2023-05-11T05:28:49.015Z,2.08
2023-05-11T05:31:16.244Z,2.10
2023-05-11T05:33:43.516Z,1.67
2023-05-11T05:36:10.713Z,1.52
2023-05-11T05:38:37.819Z,1.73
2023-05-11T05:41:05.100Z,1.13
2023-05-11T05:43:32.320Z,2.67
2023-05-11T05:45:59.446Z,2.58
2023-05-11T05:48:26.714Z,2.75
2023-05-11T05:50:54.048Z,1.35
2023-05-11T05:53:21.462Z,2.50
2023-05-11T05:55:48.553Z,2.72
2023-05-11T05:58:16.641Z,2.08
2023-05-11T06:00:43.932Z,1.52
2023-05-11T06:03:11.262Z,1.73
2023-05-11T06:05:38.424Z,2.40
2023-05-11T06:08:10.657Z,1.25
2023-05-11T06:10:38.636Z,3.20
2023-05-11T06:13:06.125Z,3.38
2023-05-11T06:15:33.583Z,1.88
2023-05-11T06:18:00.784Z,3.05
2023-05-11T06:20:27.888Z,2.88
2023-05-11T06:22:55.066Z,3.63
2023-05-11T06:25:22.297Z,3.25
2023-05-11T06:27:49.438Z,4.00
2023-05-11T06:30:16.766Z,2.92
2023-05-11T06:32:44.100Z,4.00
2023-05-11T06:35:11.249Z,2.30
2023-05-11T06:37:38.372Z,2.97
2023-05-11T06:40:06.657Z,2.80
2023-05-11T06:42:35.034Z,3.30
2023-05-11T06:45:02.210Z,2.83
2023-05-11T06:47:29.827Z,2.42
2023-05-11T06:49:56.987Z,5.15
2023-05-11T06:52:24.132Z,4.53
2023-05-11T06:54:51.377Z,3.03
2023-05-11T06:57:18.479Z,1.88
2023-05-11T06:59:45.695Z,3.58
2023-05-11T07:02:12.954Z,2.25
2023-05-11T07:04:40.162Z,5.57
2023-05-11T07:07:07.427Z,3.28
2023-05-11T07:09:34.604Z,5.45
2023-05-11T07:12:02.754Z,5.07
2023-05-11T07:14:29.928Z,4.40
2023-05-11T07:16:57.310Z,2.88
2023-05-11T07:19:24.438Z,4.57
2023-05-11T07:21:52.279Z,2.67
2023-05-11T07:24:19.355Z,3.80
2023-05-11T07:26:46.595Z,2.90
2023-05-11T07:29:13.833Z,3.15
2023-05-11T07:31:41.216Z,3.00
2023-05-11T07:34:08.539Z,3.10
2023-05-11T07:36:35.696Z,4.85
2023-05-11T07:39:03.001Z,5.55
2023-05-11T07:41:30.939Z,4.50
2023-05-11T07:44:01.595Z,4.32
2023-05-11T07:46:29.107Z,3.45
2023-05-11T07:49:11.269Z,2.38
2023-05-11T07:51:42.764Z,4.72
2023-05-11T07:54:09.948Z,3.15
2023-05-11T07:56:37.406Z,3.85
2023-05-11T07:59:04.564Z,3.35
2023-05-11T08:01:32.421Z,3.25
2023-05-11T08:04:00.327Z,2.85
2023-05-11T08:06:27.618Z,3.15
2023-05-11T08:08:54.711Z,2.70
2023-05-11T08:11:22.472Z,2.60
2023-05-11T08:13:49.600Z,2.63
2023-05-11T08:16:17.042Z,2.90
2023-05-11T08:18:44.383Z,2.50
2023-05-11T08:21:11.760Z,2.78
2023-05-11T08:23:39.135Z,2.17
2023-05-11T08:26:06.261Z,1.75
2023-05-11T08:28:33.425Z,1.90
2023-05-11T08:31:01.470Z,1.83
2023-05-11T08:35:58.769Z,2.08
2023-05-11T08:38:25.965Z,3.05
2023-05-11T08:40:53.502Z,2.90
2023-05-11T08:43:21.236Z,3.08
2023-05-11T08:45:52.723Z,2.28
2023-05-11T08:48:21.149Z,0.85
2023-05-11T08:50:48.718Z,1.58
2023-05-11T08:53:15.873Z,1.92
2023-05-11T08:55:43.502Z,0.68
2023-05-11T08:58:11.114Z,1.45
2023-05-11T09:00:38.442Z,1.83
2023-05-11T09:03:05.693Z,1.88
2023-05-11T09:05:33.071Z,1.27
2023-05-11T09:08:02.147Z,1.02
2023-05-11T09:10:29.422Z,1.65
2023-05-11T09:12:56.557Z,2.45
2023-05-11T09:15:23.838Z,1.70
2023-05-11T09:17:51.025Z,1.52
2023-05-11T09:20:25.004Z,3.10
2023-05-11T09:22:53.252Z,1.92
2023-05-11T09:25:20.656Z,2.80
2023-05-11T09:27:48.351Z,2.20
2023-05-11T09:30:22.059Z,1.48
2023-05-11T09:32:53.034Z,4.43
2023-05-11T09:35:24.649Z,1.98
2023-05-11T09:38:11.209Z,2.92
2023-05-11T09:40:39.946Z,2.00
2023-05-11T09:43:17.226Z,3.70
2023-05-11T09:45:45.492Z,1.77
2023-05-11T09:48:21.933Z,2.90
2023-05-11T09:50:49.745Z,3.40
2023-05-11T09:53:17.238Z,4.43
2023-05-11T09:55:54.476Z,2.35
2023-05-11T09:58:22.302Z,4.40
2023-05-11T10:00:53.656Z,2.83
2023-05-11T10:03:21.526Z,3.03
2023-05-11T10:05:58.801Z,3.28
2023-05-11T10:08:30.380Z,5.03
2023-05-11T10:10:58.006Z,2.30
2023-05-11T10:13:26.430Z,2.42
2023-05-11T10:15:54.582Z,3.40
2023-05-11T10:18:22.371Z,2.35
2023-05-11T10:20:49.817Z,2.13
2023-05-11T10:23:17.725Z,3.13
2023-05-11T10:25:45.649Z,2.08
2023-05-11T10:28:12.804Z,3.17
2023-05-11T10:30:41.554Z,4.38
2023-05-11T10:33:09.345Z,3.47
2023-05-11T10:35:38.993Z,3.33
2023-05-11T10:38:07.410Z,1.50
2023-05-11T10:40:39.318Z,3.90
2023-05-11T10:43:21.608Z,3.13
2023-05-11T10:45:52.709Z,1.38
2023-05-11T10:48:37.172Z,1.33
2023-05-11T10:51:05.510Z,2.40
2023-05-11T10:53:32.717Z,2.20
2023-05-11T10:56:18.694Z,2.17
2023-05-11T10:59:04.799Z,2.20
2023-05-11T11:01:32.181Z,2.53
2023-05-11T11:04:01.898Z,2.67
2023-05-11T11:06:29.710Z,1.38
2023-05-11T11:09:00.484Z,2.20
2023-05-11T11:11:39.147Z,2.60
2023-05-11T11:14:07.379Z,1.67
2023-05-11T11:16:36.024Z,3.80
2023-05-11T11:19:38.794Z,3.92
2023-05-11T11:22:06.249Z,2.38
2023-05-11T11:24:39.223Z,2.40
2023-05-11T11:27:06.848Z,2.53
2023-05-11T11:29:35.150Z,3.75
2023-05-11T11:32:25.403Z,3.35
2023-05-11T11:34:52.629Z,2.75
2023-05-11T11:37:22.208Z,2.42
2023-05-11T11:39:50.690Z,3.92
2023-05-11T11:42:19.269Z,4.30
2023-05-11T11:44:47.051Z,3.88
2023-05-11T11:47:17.952Z,3.30
2023-05-11T11:49:46.388Z,2.40
2023-05-11T11:52:29.104Z,3.00
2023-05-11T11:54:57.164Z,4.47
2023-05-11T11:57:32.535Z,3.03
2023-05-11T12:00:00.537Z,2.53
2023-05-11T12:02:28.705Z,3.47
2023-05-11T12:05:01.128Z,3.17
2023-05-11T12:07:33.219Z,2.95
2023-05-11T12:10:04.016Z,3.70
2023-05-11T12:12:31.685Z,3.90
2023-05-11T12:14:59.946Z,3.25
2023-05-11T12:17:34.400Z,2.13
2023-05-11T12:20:15.125Z,2.88
2023-05-11T12:22:43.392Z,2.55
2023-05-11T12:25:13.555Z,3.80
2023-05-11T12:27:50.801Z,1.83
2023-05-11T12:30:25.472Z,2.75
2023-05-11T12:35:27.876Z,3.30
2023-05-11T12:37:55.486Z,3.05
2023-05-11T12:40:22.688Z,3.63
2023-05-11T12:42:51.089Z,2.55
2023-05-11T12:45:19.034Z,2.83
2023-05-11T12:47:47.110Z,1.75
2023-05-11T12:50:14.441Z,3.38
2023-05-11T12:52:41.638Z,3.85
2023-05-11T12:55:11.385Z,2.83
2023-05-11T12:57:39.368Z,3.97
2023-05-11T13:00:16.182Z,2.05
2023-05-11T13:02:51.042Z,2.03
2023-05-11T13:05:22.091Z,2.50
2023-05-11T13:07:57.633Z,4.03
2023-05-11T13:10:26.786Z,3.67
2023-05-11T13:12:54.225Z,3.08
2023-05-11T13:15:22.220Z,4.07
2023-05-11T13:17:56.030Z,2.92
2023-05-11T13:20:29.496Z,2.53
2023-05-11T13:23:04.838Z,3.58
2023-05-11T13:25:32.782Z,2.58
2023-05-11T13:28:01.436Z,3.05
2023-05-11T13:30:28.860Z,3.38
2023-05-11T13:32:56.120Z,3.22
2023-05-11T13:35:23.239Z,1.48
2023-05-11T13:37:50.340Z,3.20
2023-05-11T13:40:17.430Z,2.95
2023-05-11T13:42:44.586Z,1.77
2023-05-11T13:45:12.144Z,1.98
2023-05-11T13:47:39.418Z,2.38
2023-05-11T13:50:08.350Z,2.08
2023-05-11T13:52:35.612Z,1.65
2023-05-11T13:55:02.806Z,1.55
2023-05-11T13:57:30.118Z,2.83
2023-05-11T13:59:57.255Z,2.30
2023-05-11T14:02:24.464Z,1.30
2023-05-11T14:04:51.607Z,2.17
2023-05-11T14:07:18.741Z,2.10
2023-05-11T14:09:47.898Z,1.98
2023-05-11T14:12:15.429Z,2.17
2023-05-11T14:14:42.760Z,0.73
2023-05-11T14:17:11.072Z,2.47
2023-05-11T14:19:38.632Z,1.23
2023-05-11T14:22:06.065Z,1.10
2023-05-11T14:24:33.250Z,1.20
2023-05-11T14:27:00.566Z,0.98
2023-05-11T14:29:27.820Z,0.47
2023-05-11T14:31:54.920Z,1.58
2023-05-11T14:34:22.021Z,1.02
2023-05-11T14:36:49.388Z,1.85
2023-05-11T14:39:16.466Z,0.88
2023-05-11T14:41:43.659Z,1.15
2023-05-11T14:44:10.829Z,1.02
2023-05-11T14:46:38.001Z,1.02
2023-05-11T14:49:05.105Z,0.50
2023-05-11T14:51:32.163Z,0.60
2023-05-11T14:53:59.229Z,2.22
2023-05-11T14:56:26.593Z,0.63
2023-05-11T14:58:53.843Z,0.82
2023-05-11T15:01:21.503Z,0.30
2023-05-11T15:03:48.791Z,0.98
2023-05-11T15:06:22.048Z,1.30
2023-05-11T15:08:49.480Z,1.13
2023-05-11T15:11:17.029Z,0.68
2023-05-11T15:13:44.251Z,0.75
2023-05-11T15:16:11.533Z,1.33
2023-05-11T15:18:39.568Z,1.00
2023-05-11T15:21:07.851Z,0.57
2023-05-11T15:23:35.516Z,2.92
2023-05-11T15:26:02.755Z,0.52
2023-05-11T15:28:30.905Z,1.70
2023-05-11T15:30:58.706Z,1.10
2023-05-11T15:33:25.932Z,1.08
2023-05-11T15:35:53.149Z,0.63
2023-05-11T15:38:20.755Z,0.25
2023-05-11T15:40:47.893Z,0.77
2023-05-11T15:43:15.113Z,0.82
2023-05-11T15:45:42.315Z,1.67
2023-05-11T15:48:09.707Z,0.68
2023-05-11T15:50:36.971Z,0.60
2023-05-11T15:53:04.144Z,0.70
2023-05-11T15:55:31.227Z,1.15
2023-05-11T15:57:58.321Z,0.65
2023-05-11T16:00:25.528Z,1.23
2023-05-11T16:02:53.388Z,0.43
2023-05-11T16:05:20.862Z,0.20
2023-05-11T16:07:47.980Z,0.50
2023-05-11T16:10:15.337Z,0.10
2023-05-11T16:12:42.488Z,0.45
2023-05-11T16:15:10.187Z,0.50
2023-05-11T16:17:37.448Z,0.25
2023-05-11T16:20:05.074Z,1.48
2023-05-11T16:22:32.387Z,0.60
2023-05-11T16:24:59.605Z,1.05
2023-05-11T16:27:26.788Z,0.43
2023-05-11T16:29:54.033Z,0.20
2023-05-11T16:32:21.366Z,0.00
2023-05-11T16:34:50.041Z,0.63
2023-05-11T16:37:17.953Z,0.10
2023-05-11T16:39:45.144Z,0.10
2023-05-11T16:42:12.320Z,0.35
2023-05-11T16:44:39.471Z,1.05
2023-05-11T16:47:06.807Z,0.30
2023-05-11T16:49:33.895Z,0.22
2023-05-11T16:52:01.210Z,0.13
2023-05-11T16:54:29.143Z,0.93
2023-05-11T16:56:56.979Z,0.20
2023-05-11T16:59:24.213Z,0.77
2023-05-11T17:01:51.492Z,1.30
2023-05-11T17:04:18.722Z,0.43
2023-05-11T17:06:46.265Z,0.82
2023-05-11T17:09:13.846Z,0.40
2023-05-11T17:11:41.080Z,0.40
2023-05-11T17:14:08.380Z,0.60
2023-05-11T17:16:35.779Z,0.40
2023-05-11T17:19:03.506Z,0.57
2023-05-11T17:21:30.833Z,0.35
2023-05-11T17:23:58.047Z,0.50
2023-05-11T17:26:29.633Z,0.45
2023-05-11T17:29:02.852Z,0.82
2023-05-11T17:31:32.163Z,0.52
2023-05-11T17:33:59.648Z,0.47
2023-05-11T17:36:32.229Z,0.73
2023-05-11T17:38:59.334Z,0.20
2023-05-11T17:41:26.506Z,0.30
2023-05-11T17:43:53.574Z,0.57
2023-05-11T17:46:21.041Z,0.10
2023-05-11T17:48:48.481Z,0.20
2023-05-11T17:51:16.805Z,0.13
2023-05-11T17:53:43.896Z,0.15
2023-05-11T17:56:11.885Z,0.40
2023-05-11T17:58:39.232Z,0.25
2023-05-11T18:01:16.749Z,0.40
2023-05-11T18:03:44.352Z,0.13
2023-05-11T18:06:11.501Z,0.65
2023-05-11T18:08:38.631Z,0.20
2023-05-11T18:11:07.440Z,0.30
2023-05-11T18:13:34.885Z,0.63
2023-05-11T18:16:02.095Z,0.40
2023-05-11T18:18:29.206Z,0.10
2023-05-11T18:20:56.473Z,0.32
2023-05-11T18:23:24.064Z,0.43
2023-05-11T18:25:51.243Z,0.20
2023-05-11T18:28:18.414Z,0.77
2023-05-11T18:30:45.546Z,0.68
2023-05-11T18:33:12.698Z,0.80
2023-05-11T18:35:41.613Z,0.20
2023-05-11T18:38:08.838Z,0.10
2023-05-11T18:40:36.205Z,0.10
2023-05-11T18:43:03.960Z,0.43
2023-05-11T18:45:32.998Z,0.95
2023-05-11T18:48:00.271Z,0.10
2023-05-11T18:50:29.641Z,0.20
2023-05-11T18:53:00.212Z,0.20
2023-05-11T18:55:30.854Z,0.47
2023-05-11T18:57:58.545Z,0.17
2023-05-11T19:00:25.613Z,0.28
2023-05-11T19:02:54.587Z,0.95
2023-05-11T19:05:22.006Z,0.40
2023-05-11T19:07:49.178Z,1.20
2023-05-11T19:10:18.234Z,0.47
2023-05-11T19:12:46.159Z,0.28
2023-05-11T19:15:13.251Z,0.60
2023-05-11T19:17:40.437Z,0.43
2023-05-11T19:20:08.410Z,1.25
2023-05-11T19:22:35.575Z,0.20
2023-05-11T19:25:02.663Z,0.38
2023-05-11T19:27:29.887Z,0.73
2023-05-11T19:29:57.009Z,0.38
2023-05-11T19:32:24.167Z,0.60
2023-05-11T19:34:51.928Z,0.15
2023-05-11T19:37:19.108Z,0.25
2023-05-11T19:39:46.246Z,0.75
2023-05-11T19:42:13.382Z,0.10
2023-05-11T19:44:43.551Z,0.47
2023-05-11T19:47:11.015Z,0.45
2023-05-11T19:49:38.366Z,0.10
2023-05-11T19:52:05.633Z,0.40
2023-05-11T19:54:32.928Z,0.43
2023-05-11T19:57:00.824Z,1.23
2023-05-11T19:59:32.809Z,0.25
2023-05-11T20:02:00.610Z,0.73
2023-05-11T20:04:28.419Z,0.30
2023-05-11T20:06:56.015Z,0.50
2023-05-11T20:09:23.270Z,0.50
2023-05-11T20:11:50.450Z,0.73
2023-05-11T20:14:17.862Z,0.82
2023-05-11T20:16:45.358Z,0.88
2023-05-11T20:19:12.811Z,0.68
2023-05-11T20:21:40.062Z,0.70
2023-05-11T20:24:07.249Z,0.73
2023-05-11T20:26:34.415Z,0.40
2023-05-11T20:29:01.564Z,0.30
2023-05-11T20:31:29.048Z,0.77
2023-05-11T20:36:26.443Z,0.47
2023-05-11T20:38:54.083Z,0.80
2023-05-11T20:41:22.124Z,0.20
2023-05-11T20:43:49.636Z,0.55
2023-05-11T20:46:16.840Z,0.32
2023-05-11T20:48:49.458Z,0.38
2023-05-11T20:51:23.098Z,0.68
2023-05-11T20:53:50.677Z,0.95
2023-05-11T20:56:17.996Z,1.15
2023-05-11T20:58:47.469Z,0.77
2023-05-11T21:01:14.924Z,0.60
2023-05-11T21:03:42.090Z,1.45
2023-05-11T21:06:09.297Z,0.60
2023-05-11T21:08:36.647Z,0.90
2023-05-11T21:11:03.807Z,0.30
2023-05-11T21:13:30.978Z,1.08
2023-05-11T21:15:58.110Z,0.93
2023-05-11T21:18:31.955Z,1.13
2023-05-11T21:20:59.678Z,0.80
2023-05-11T21:23:27.277Z,0.55
2023-05-11T21:25:55.009Z,0.50
2023-05-11T21:28:22.153Z,0.85
2023-05-11T21:30:50.003Z,0.40
2023-05-11T21:33:17.196Z,0.75
2023-05-11T21:35:45.551Z,0.93
2023-05-11T21:38:15.070Z,0.30
2023-05-11T21:40:42.336Z,0.38
2023-05-11T21:43:10.517Z,0.20
2023-05-11T21:45:38.561Z,0.60
2023-05-11T21:48:05.940Z,0.80
2023-05-11T21:50:33.109Z,0.93
2023-05-11T21:53:00.228Z,0.88
2023-05-11T21:55:27.398Z,0.32
2023-05-11T21:57:54.464Z,0.40
2023-05-11T22:00:22.708Z,1.17
2023-05-11T22:02:50.766Z,0.70
2023-05-11T22:05:18.140Z,1.25
2023-05-11T22:07:45.378Z,0.40
2023-05-11T22:10:13.054Z,0.20
2023-05-11T22:12:40.211Z,0.68
2023-05-11T22:15:08.772Z,0.85
2023-05-11T22:17:36.919Z,0.75
2023-05-11T22:20:08.306Z,0.57
2023-05-11T22:22:35.890Z,0.50
2023-05-11T22:25:03.433Z,0.60
2023-05-11T22:27:30.649Z,0.77
2023-05-11T22:29:57.780Z,0.63
2023-05-11T22:32:25.029Z,0.10
2023-05-11T22:35:02.035Z,1.60
2023-05-11T22:37:29.192Z,0.47
2023-05-11T22:39:56.336Z,0.80
2023-05-11T22:42:23.574Z,0.70
2023-05-11T22:44:50.737Z,0.57
2023-05-11T22:47:17.944Z,0.75
2023-05-11T22:49:45.044Z,0.68
2023-05-11T22:52:12.637Z,0.93
2023-05-11T22:54:39.813Z,0.40
2023-05-11T22:57:06.944Z,1.13
2023-05-11T22:59:34.648Z,0.77
2023-05-11T23:02:03.262Z,0.30
2023-05-11T23:04:31.317Z,0.40
2023-05-11T23:06:59.394Z,1.05
2023-05-11T23:09:26.689Z,1.88
2023-05-11T23:11:54.139Z,1.17
2023-05-11T23:14:21.423Z,1.00
2023-05-11T23:16:48.560Z,0.60
2023-05-11T23:19:15.672Z,0.82
2023-05-11T23:21:42.865Z,0.47
2023-05-11T23:24:09.972Z,0.95
2023-05-11T23:26:37.360Z,0.75
2023-05-11T23:29:04.667Z,0.77
2023-05-11T23:31:32.701Z,0.88
2023-05-11T23:33:59.950Z,0.68
2023-05-11T23:36:27.112Z,1.63
2023-05-11T23:38:54.534Z,0.30
2023-05-11T23:41:22.336Z,0.68
2023-05-11T23:43:49.434Z,0.40
2023-05-11T23:46:16.603Z,1.02
2023-05-11T23:48:43.701Z,0.43
2023-05-11T23:51:11.047Z,0.50
2023-05-11T23:53:38.396Z,0.75
2023-05-11T23:56:05.695Z,0.47
2023-05-11T23:58:32.767Z,0.50
